Time;durP1;ratioP1;P1;durP2;ratioP2;P2;SDS_P1;SDS_P2;PMS_P1;PMS_P2;Temp;Humidity;BMP_temperature;BMP_pressure;BME280_temperature;BME280_humidity;BME280_pressure;Samples;Min_cycle;Max_cycle;Signal;HPM_P1;HPM_P2
2024/01/02 00:00:42;;;;;;;10.75;4.28;;;5.40;99.90;;;;;;4850132;29;20521;-82
2024/01/02 00:03:08;;;;;;;9.68;3.25;;;5.40;99.90;;;;;;4819956;29;20046;-82
2024/01/02 00:05:33;;;;;;;16.88;6.25;;;5.40;99.90;;;;;;4836712;29;20430;-82
2024/01/02 00:07:59;;;;;;;12.30;3.63;;;5.50;99.90;;;;;;4838679;29;20042;-83
2024/01/02 00:10:25;;;;;;;11.45;3.47;;;5.50;99.90;;;;;;4839371;29;20098;-82
2024/01/02 00:12:51;;;;;;;10.63;3.50;;;5.50;99.90;;;;;;4839318;29;20096;-82
2024/01/02 00:15:17;;;;;;;10.45;3.60;;;6.30;99.90;;;;;;4838072;29;20085;-81
2024/01/02 00:17:42;;;;;;;10.15;2.75;;;5.60;99.90;;;;;;4839048;29;20106;-82
2024/01/02 00:20:08;;;;;;;9.38;3.20;;;5.60;99.90;;;;;;4835485;29;20046;-82
2024/01/02 00:22:34;;;;;;;9.70;3.00;;;5.60;99.90;;;;;;4837661;29;20097;-82
2024/01/02 00:24:59;;;;;;;11.00;3.58;;;5.60;99.90;;;;;;4838700;29;20362;-81
2024/01/02 00:27:25;;;;;;;9.30;3.15;;;5.60;99.90;;;;;;4839165;29;20093;-82
2024/01/02 00:29:50;;;;;;;10.80;2.92;;;5.70;99.90;;;;;;4838229;29;20054;-81
2024/01/02 00:32:16;;;;;;;6.00;2.50;;;5.60;99.90;;;;;;4836268;29;20049;-82
2024/01/02 00:34:41;;;;;;;4.85;2.45;;;5.70;99.90;;;;;;4838254;29;20057;-81
2024/01/02 00:37:07;;;;;;;4.43;1.65;;;5.70;99.90;;;;;;4856245;29;20058;-82
2024/01/02 00:39:33;;;;;;;9.30;2.53;;;5.70;99.90;;;;;;4857657;29;20053;-82
2024/01/02 00:41:58;;;;;;;10.68;2.50;;;5.70;99.90;;;;;;4871558;29;20076;-82
2024/01/02 00:44:24;;;;;;;6.22;2.00;;;5.70;99.90;;;;;;4854978;29;20052;-81
2024/01/02 00:46:49;;;;;;;7.90;2.65;;;5.70;99.90;;;;;;4860680;29;20101;-82
2024/01/02 00:49:15;;;;;;;7.43;2.38;;;5.70;99.90;;;;;;4820366;29;20082;-82
2024/01/02 00:51:41;;;;;;;7.85;2.50;;;5.70;99.90;;;;;;4838403;29;20129;-82
2024/01/02 00:54:06;;;;;;;10.43;2.53;;;5.70;99.90;;;;;;4829824;29;20194;-82
2024/01/02 00:56:32;;;;;;;7.22;2.10;;;5.70;99.90;;;;;;4829597;29;20072;-82
2024/01/02 00:58:57;;;;;;;8.30;2.70;;;5.80;99.90;;;;;;4822087;29;20089;-81
2024/01/02 01:01:23;;;;;;;7.95;2.65;;;5.80;99.90;;;;;;4837243;29;20054;-81
2024/01/02 01:03:48;;;;;;;8.35;2.15;;;5.80;99.90;;;;;;4838627;29;20048;-81
2024/01/02 01:06:14;;;;;;;14.30;2.33;;;5.90;99.90;;;;;;4837558;29;20806;-81
2024/01/02 01:08:40;;;;;;;8.77;2.45;;;5.80;99.90;;;;;;4836300;29;20104;-81
2024/01/02 01:11:05;;;;;;;9.05;2.30;;;5.90;99.90;;;;;;4836942;29;20046;-81
2024/01/02 01:13:31;;;;;;;6.65;2.10;;;5.90;99.90;;;;;;4836264;29;20049;-81
2024/01/02 01:15:56;;;;;;;8.10;2.08;;;5.90;99.90;;;;;;4838289;29;20050;-81
2024/01/02 01:18:22;;;;;;;10.15;2.35;;;5.90;99.90;;;;;;4836071;29;20046;-81
2024/01/02 01:20:47;;;;;;;10.80;2.13;;;5.90;99.90;;;;;;4835360;29;20074;-81
2024/01/02 01:23:13;;;;;;;6.53;2.40;;;5.90;99.90;;;;;;4822202;29;20477;-82
2024/01/02 01:25:38;;;;;;;6.47;2.25;;;5.90;99.90;;;;;;4820077;29;20123;-81
2024/01/02 01:28:04;;;;;;;8.77;2.45;;;6.00;99.90;;;;;;4832923;29;20050;-81
2024/01/02 01:30:30;;;;;;;7.35;2.30;;;5.90;99.90;;;;;;4838211;29;20515;-81
2024/01/02 01:32:56;;;;;;;9.75;2.67;;;6.00;99.90;;;;;;4836916;29;20053;-82
2024/01/02 01:35:21;;;;;;;9.50;2.60;;;6.00;99.90;;;;;;4836306;29;20365;-82
2024/01/02 01:37:47;;;;;;;14.05;3.42;;;6.00;99.90;;;;;;4848040;29;20057;-82
2024/01/02 01:40:12;;;;;;;11.70;3.03;;;6.00;99.90;;;;;;4819293;29;20050;-82
2024/01/02 01:42:38;;;;;;;15.70;2.90;;;6.00;99.90;;;;;;4849191;29;20043;-82
2024/01/02 01:45:04;;;;;;;9.63;2.70;;;6.10;99.90;;;;;;4819111;29;20580;-81
2024/01/02 01:47:30;;;;;;;12.40;3.08;;;6.00;99.90;;;;;;4819612;29;20042;-82
2024/01/02 01:49:56;;;;;;;11.93;3.08;;;6.10;99.90;;;;;;4831739;29;20143;-82
2024/01/02 01:52:22;;;;;;;12.98;3.42;;;6.10;99.90;;;;;;4824680;29;20054;-82
2024/01/02 01:54:48;;;;;;;9.65;2.78;;;6.10;99.90;;;;;;4819591;29;20731;-82
2024/01/02 01:57:14;;;;;;;10.20;3.65;;;6.10;99.90;;;;;;4818149;29;20061;-82
2024/01/02 01:59:41;;;;;;;17.55;3.42;;;6.10;99.90;;;;;;4834660;29;20057;-82
2024/01/02 02:02:07;;;;;;;11.70;3.45;;;6.10;99.90;;;;;;4836070;29;20053;-82
2024/01/02 02:04:35;;;;;;;14.00;3.95;;;6.10;99.90;;;;;;4838148;29;20046;-81
2024/01/02 02:07:02;;;;;;;9.65;3.60;;;6.10;99.90;;;;;;4835584;29;20061;-83
2024/01/02 02:09:27;;;;;;;13.50;4.07;;;6.20;99.90;;;;;;4837568;29;20057;-82
2024/01/02 02:11:53;;;;;;;16.13;4.78;;;6.20;99.90;;;;;;4835572;29;20054;-81
2024/01/02 02:14:19;;;;;;;13.88;4.07;;;6.20;99.90;;;;;;4835210;29;20054;-82
2024/01/02 02:16:45;;;;;;;15.20;4.40;;;6.20;99.90;;;;;;4836340;29;20062;-82
2024/01/02 02:19:10;;;;;;;12.27;4.35;;;6.20;99.90;;;;;;4835783;29;20548;-82
2024/01/02 02:21:37;;;;;;;10.48;4.55;;;6.20;99.90;;;;;;4835989;29;20149;-82
2024/01/02 02:24:03;;;;;;;9.50;4.15;;;6.20;99.90;;;;;;4835020;29;20042;-81
2024/01/02 02:26:28;;;;;;;10.38;4.20;;;6.20;99.90;;;;;;4836256;29;20057;-81
2024/01/02 02:28:54;;;;;;;15.50;4.40;;;6.20;99.90;;;;;;4832444;29;20401;-81
2024/01/02 02:31:20;;;;;;;13.95;4.55;;;6.20;99.90;;;;;;4835432;29;20054;-81
2024/01/02 02:33:46;;;;;;;12.70;4.60;;;6.20;99.90;;;;;;4836236;29;20057;-81
2024/01/02 02:36:11;;;;;;;10.65;4.40;;;6.20;99.90;;;;;;4833955;29;20058;-81
2024/01/02 02:38:37;;;;;;;13.75;4.93;;;6.20;99.90;;;;;;4820460;29;20517;-81
2024/01/02 02:41:03;;;;;;;9.35;4.43;;;6.20;99.90;;;;;;4817866;29;20050;-81
2024/01/02 02:43:29;;;;;;;12.35;4.75;;;6.20;99.90;;;;;;4836226;29;20045;-81
2024/01/02 02:45:55;;;;;;;11.40;3.88;;;6.20;99.90;;;;;;4837119;29;20046;-81
2024/01/02 02:48:23;;;;;;;8.50;4.20;;;6.20;99.90;;;;;;4835243;29;20470;-82
2024/01/02 02:50:48;;;;;;;13.38;4.35;;;6.20;99.90;;;;;;4835555;29;20513;-82
2024/01/02 02:53:17;;;;;;;12.35;4.60;;;6.20;99.90;;;;;;4834629;29;20053;-81
2024/01/02 02:55:42;;;;;;;9.40;4.43;;;6.20;99.90;;;;;;4835626;29;20117;-81
2024/01/02 02:58:08;;;;;;;11.40;4.00;;;6.30;99.90;;;;;;4836613;29;20054;-81
2024/01/02 03:00:35;;;;;;;12.27;4.03;;;6.20;99.90;;;;;;4836694;29;20054;-81
2024/01/02 03:03:02;;;;;;;11.57;4.00;;;6.20;99.90;;;;;;4835540;29;20525;-81
2024/01/02 03:05:27;;;;;;;10.55;3.80;;;6.30;99.90;;;;;;4835547;29;20054;-81
2024/01/02 03:07:53;;;;;;;8.90;3.80;;;6.30;99.90;;;;;;4839133;29;20050;-81
2024/01/02 03:10:18;;;;;;;11.55;4.20;;;6.30;99.90;;;;;;4839541;29;20045;-81
2024/01/02 03:12:45;;;;;;;8.10;3.80;;;6.30;99.90;;;;;;4840728;29;20050;-81
2024/01/02 03:15:11;;;;;;;6.78;3.42;;;6.30;99.90;;;;;;4840166;29;20062;-81
2024/01/02 03:17:37;;;;;;;7.97;3.85;;;6.30;99.90;;;;;;4838598;29;20133;-81
2024/01/02 03:20:03;;;;;;;9.23;4.00;;;6.40;99.90;;;;;;4838274;29;20073;-81
2024/01/02 03:22:29;;;;;;;11.18;4.00;;;6.40;99.90;;;;;;4839604;29;20054;-81
2024/01/02 03:24:54;;;;;;;10.43;4.20;;;6.40;99.90;;;;;;4840376;29;20045;-81
2024/01/02 03:27:20;;;;;;;12.13;3.80;;;6.30;99.90;;;;;;4840146;29;20071;-81
2024/01/02 03:29:48;;;;;;;10.50;4.15;;;6.30;99.90;;;;;;4838627;29;20462;-80
2024/01/02 03:32:13;;;;;;;10.45;4.10;;;6.30;99.90;;;;;;4839801;29;20113;-81
2024/01/02 03:34:39;;;;;;;11.65;3.97;;;6.30;99.90;;;;;;4838285;29;20544;-81
2024/01/02 03:37:04;;;;;;;10.43;4.13;;;6.30;99.90;;;;;;4838751;29;20160;-81
2024/01/02 03:39:30;;;;;;;7.03;4.07;;;6.30;99.90;;;;;;4838994;29;20406;-81
2024/01/02 03:41:56;;;;;;;11.38;3.75;;;6.30;99.90;;;;;;4839391;29;20049;-81
2024/01/02 03:44:21;;;;;;;11.20;3.90;;;6.40;99.90;;;;;;4838766;29;20386;-81
2024/01/02 03:46:47;;;;;;;7.85;4.05;;;6.70;99.90;;;;;;4837561;29;20042;-81
2024/01/02 03:49:13;;;;;;;8.00;3.50;;;6.30;99.90;;;;;;4838676;29;20065;-81
2024/01/02 03:51:39;;;;;;;10.32;4.20;;;6.30;99.90;;;;;;4840787;29;20049;-81
2024/01/02 03:54:05;;;;;;;8.02;3.90;;;6.40;99.90;;;;;;4837982;29;20408;-81
2024/01/02 03:56:30;;;;;;;8.40;3.70;;;6.30;99.90;;;;;;4838418;29;20050;-81
2024/01/02 03:58:56;;;;;;;7.90;3.80;;;6.40;99.90;;;;;;4838444;29;20122;-81
2024/01/02 04:01:22;;;;;;;10.70;4.18;;;6.30;99.90;;;;;;4839092;29;20092;-81
2024/01/02 04:03:47;;;;;;;7.95;4.05;;;6.40;99.90;;;;;;4838344;29;20049;-81
2024/01/02 04:06:13;;;;;;;7.43;3.50;;;6.30;99.90;;;;;;4839286;29;20497;-81
2024/01/02 04:08:38;;;;;;;7.47;3.67;;;6.30;99.90;;;;;;4836976;29;20404;-81
2024/01/02 04:11:05;;;;;;;6.93;3.67;;;6.30;99.90;;;;;;4837782;29;20060;-81
2024/01/02 04:13:30;;;;;;;8.50;3.53;;;6.30;99.90;;;;;;4838270;29;20466;-81
2024/01/02 04:15:56;;;;;;;8.20;3.63;;;6.40;99.90;;;;;;4837294;29;20058;-81
2024/01/02 04:18:21;;;;;;;7.00;2.92;;;6.40;99.90;;;;;;4837962;29;20133;-81
2024/01/02 04:20:47;;;;;;;8.23;3.03;;;6.40;99.90;;;;;;4827447;29;20109;-81
2024/01/02 04:23:13;;;;;;;5.97;2.70;;;6.40;99.90;;;;;;4818549;29;20043;-81
2024/01/02 04:25:39;;;;;;;8.32;2.67;;;6.40;99.90;;;;;;4819617;29;20134;-81
2024/01/02 04:28:05;;;;;;;7.05;2.53;;;6.30;99.90;;;;;;4820324;29;20526;-81
2024/01/02 04:30:30;;;;;;;4.95;2.45;;;6.40;99.90;;;;;;4824392;29;20050;-81
2024/01/02 04:32:56;;;;;;;4.53;2.17;;;6.40;99.90;;;;;;4836284;29;20057;-82
2024/01/02 04:35:22;;;;;;;5.30;2.15;;;6.40;99.90;;;;;;4837797;29;20058;-81
2024/01/02 04:37:48;;;;;;;7.30;2.25;;;6.40;99.90;;;;;;4838168;29;20399;-82
2024/01/02 04:40:14;;;;;;;5.28;2.58;;;6.40;99.90;;;;;;4837630;29;20054;-81
2024/01/02 04:42:40;;;;;;;5.40;1.90;;;6.40;99.90;;;;;;4837159;29;20056;-81
2024/01/02 04:45:06;;;;;;;6.18;1.98;;;6.40;99.90;;;;;;4835386;29;20042;-82
2024/01/02 04:47:32;;;;;;;3.38;1.83;;;6.40;99.90;;;;;;4836659;29;20488;-82
2024/01/02 04:49:59;;;;;;;4.55;2.08;;;6.40;99.90;;;;;;4838272;29;20129;-81
2024/01/02 04:52:29;;;;;;;7.05;1.98;;;6.40;99.90;;;;;;4838011;29;20130;-81
2024/01/02 04:54:55;;;;;;;6.95;2.45;;;6.40;99.90;;;;;;4838316;29;20501;-81
2024/01/02 04:57:21;;;;;;;2.78;1.58;;;6.40;99.90;;;;;;4837207;29;20046;-81
2024/01/02 04:59:48;;;;;;;3.45;1.75;;;6.40;99.90;;;;;;4836929;29;20481;-81
2024/01/02 05:02:14;;;;;;;2.25;1.63;;;6.40;99.90;;;;;;4827466;29;20054;-82
2024/01/02 05:04:40;;;;;;;3.92;1.80;;;6.40;99.90;;;;;;4820510;29;20512;-82
2024/01/02 05:07:06;;;;;;;2.72;1.70;;;6.40;99.90;;;;;;4835822;29;20065;-82
2024/01/02 05:09:32;;;;;;;4.28;2.10;;;6.40;99.90;;;;;;4837719;29;20049;-83
2024/01/02 05:11:57;;;;;;;2.88;1.58;;;6.40;99.90;;;;;;4837964;29;20424;-82
2024/01/02 05:14:23;;;;;;;3.67;1.88;;;6.50;99.90;;;;;;4852330;29;20050;-82
2024/01/02 05:16:49;;;;;;;4.72;1.90;;;6.50;99.90;;;;;;4821714;29;20412;-82
2024/01/02 05:19:15;;;;;;;3.58;1.73;;;6.40;99.90;;;;;;4838339;29;20054;-82
2024/01/02 05:21:41;;;;;;;2.80;1.77;;;6.40;99.90;;;;;;4836313;29;20056;-82
2024/01/02 05:24:06;;;;;;;2.63;1.83;;;6.40;99.90;;;;;;4837159;29;20050;-81
2024/01/02 05:26:32;;;;;;;2.60;2.10;;;6.50;99.90;;;;;;4837217;29;20072;-81
2024/01/02 05:28:57;;;;;;;2.75;1.80;;;6.50;99.90;;;;;;4837711;29;20050;-81
2024/01/02 05:31:23;;;;;;;2.22;1.65;;;6.40;99.90;;;;;;4836669;29;20057;-81
2024/01/02 05:33:49;;;;;;;4.90;1.80;;;6.40;99.90;;;;;;4837413;29;20053;-82
2024/01/02 05:36:14;;;;;;;5.43;2.13;;;6.50;99.90;;;;;;4840431;29;20058;-81
2024/01/02 05:38:40;;;;;;;2.15;1.83;;;6.50;99.90;;;;;;4817960;29;20149;-81
2024/01/02 05:41:07;;;;;;;5.60;1.90;;;6.40;99.90;;;;;;4818175;29;20133;-81
2024/01/02 05:43:32;;;;;;;4.05;2.10;;;6.90;99.90;;;;;;4842371;29;20042;-81
2024/01/02 05:45:58;;;;;;;2.83;1.65;;;6.50;99.90;;;;;;4837542;29;20041;-80
2024/01/02 05:48:23;;;;;;;3.47;1.77;;;6.40;99.90;;;;;;4837240;29;20560;-81
2024/01/02 05:50:49;;;;;;;3.00;1.55;;;6.40;99.90;;;;;;4836269;29;20085;-81
2024/01/02 05:53:15;;;;;;;3.03;1.50;;;6.50;99.90;;;;;;4834686;29;20480;-81
2024/01/02 05:55:40;;;;;;;4.53;1.90;;;6.40;99.90;;;;;;4837702;29;20046;-80
2024/01/02 05:58:06;;;;;;;2.67;1.88;;;6.40;99.90;;;;;;4837289;29;20074;-81
2024/01/02 06:00:31;;;;;;;2.60;1.80;;;6.40;99.90;;;;;;4835995;29;20408;-80
2024/01/02 06:02:58;;;;;;;2.97;1.70;;;6.40;99.90;;;;;;4823654;29;20062;-80
2024/01/02 06:05:23;;;;;;;2.75;1.60;;;6.50;99.90;;;;;;4836257;29;20056;-81
2024/01/02 06:07:49;;;;;;;2.60;1.50;;;6.50;99.90;;;;;;4836000;29;20071;-81
2024/01/02 06:10:15;;;;;;;1.65;1.35;;;6.50;99.90;;;;;;4837528;29;20121;-81
2024/01/02 06:12:40;;;;;;;1.90;1.52;;;6.50;99.90;;;;;;4836149;29;20402;-82
2024/01/02 06:15:06;;;;;;;2.45;1.70;;;6.50;99.90;;;;;;4837566;29;20560;-81
2024/01/02 06:17:32;;;;;;;2.20;1.50;;;6.50;99.90;;;;;;4837796;29;20109;-81
2024/01/02 06:19:57;;;;;;;1.63;1.50;;;6.50;99.90;;;;;;4837072;29;20061;-81
2024/01/02 06:22:23;;;;;;;1.70;1.60;;;6.50;99.90;;;;;;4836473;29;20077;-81
2024/01/02 06:24:48;;;;;;;3.00;1.80;;;6.60;99.90;;;;;;4836047;29;20057;-80
2024/01/02 06:27:14;;;;;;;1.85;1.50;;;6.60;99.90;;;;;;4869428;29;20052;-81
2024/01/02 06:29:39;;;;;;;1.70;1.55;;;6.50;99.90;;;;;;4854364;29;20476;-81
2024/01/02 06:32:06;;;;;;;1.50;1.40;;;6.60;99.90;;;;;;4855496;29;20053;-81
2024/01/02 06:34:32;;;;;;;1.50;1.40;;;6.50;99.90;;;;;;4855703;29;20092;-81
2024/01/02 06:36:57;;;;;;;1.30;1.20;;;6.50;99.90;;;;;;4855246;29;20061;-81
2024/01/02 06:39:24;;;;;;;1.55;1.10;;;6.60;99.90;;;;;;4848010;29;20420;-81
2024/01/02 06:41:49;;;;;;;1.70;1.13;;;6.60;99.90;;;;;;4831216;29;20061;-81
2024/01/02 06:44:15;;;;;;;1.55;1.45;;;6.70;99.90;;;;;;4839445;29;20058;-81
2024/01/02 06:46:41;;;;;;;1.23;1.13;;;7.40;99.90;;;;;;4839317;29;20050;-81
2024/01/02 06:49:08;;;;;;;1.60;1.50;;;6.70;99.90;;;;;;4840050;29;20053;-81
2024/01/02 06:51:34;;;;;;;1.30;1.20;;;6.70;99.90;;;;;;4839137;29;20065;-82
2024/01/02 06:54:00;;;;;;;1.60;1.20;;;6.80;99.90;;;;;;4839339;29;20408;-80
2024/01/02 06:56:25;;;;;;;1.30;1.20;;;6.80;99.90;;;;;;4840818;29;20133;-81
2024/01/02 06:58:51;;;;;;;1.20;1.10;;;6.90;99.90;;;;;;4839500;29;20057;-80
2024/01/02 07:01:17;;;;;;;2.53;1.70;;;6.90;99.90;;;;;;4839752;29;20493;-80
2024/01/02 07:03:43;;;;;;;3.03;2.75;;;6.90;99.90;;;;;;4840623;29;20082;-80
2024/01/02 07:06:09;;;;;;;2.10;1.90;;;7.00;99.90;;;;;;4839772;29;20121;-79
2024/01/02 07:08:34;;;;;;;2.05;1.85;;;7.00;99.90;;;;;;4835882;29;20136;-79
2024/01/02 07:11:01;;;;;;;2.10;2.00;;;7.00;99.90;;;;;;4837425;29;20093;-79
2024/01/02 07:13:27;;;;;;;1.60;1.50;;;7.10;99.90;;;;;;4835308;29;20072;-79
2024/01/02 07:15:53;;;;;;;2.47;1.88;;;7.10;99.90;;;;;;4826296;29;20557;-79
2024/01/02 07:18:18;;;;;;;2.42;2.08;;;7.10;99.90;;;;;;4823372;29;20477;-79
2024/01/02 07:20:44;;;;;;;2.10;1.73;;;7.10;99.90;;;;;;4839365;29;20064;-79
2024/01/02 07:23:09;;;;;;;2.13;1.95;;;7.10;99.90;;;;;;4839109;29;20050;-80
2024/01/02 07:25:35;;;;;;;1.85;1.75;;;7.10;99.90;;;;;;4839638;29;20165;-79
2024/01/02 07:28:00;;;;;;;1.85;1.75;;;7.20;99.90;;;;;;4830899;29;20046;-79
2024/01/02 07:30:26;;;;;;;2.35;2.13;;;7.20;99.90;;;;;;4831832;29;20042;-80
2024/01/02 07:32:51;;;;;;;3.13;2.83;;;7.20;99.90;;;;;;4852322;29;20098;-79
2024/01/02 07:35:17;;;;;;;2.78;2.58;;;7.20;99.90;;;;;;4858617;29;20572;-80
2024/01/02 07:37:43;;;;;;;2.35;2.15;;;6.70;99.90;;;;;;4857974;29;20100;-79
2024/01/02 07:40:09;;;;;;;3.90;2.30;;;7.30;99.90;;;;;;4870150;29;20381;-80
2024/01/02 07:42:35;;;;;;;2.30;2.10;;;7.30;99.90;;;;;;4838489;29;20129;-79
2024/01/02 07:45:01;;;;;;;2.30;2.10;;;7.40;99.90;;;;;;4837670;29;20124;-83
2024/01/02 07:47:26;;;;;;;1.98;1.77;;;7.40;99.90;;;;;;4821096;29;20046;-82
2024/01/02 07:49:52;;;;;;;2.10;1.90;;;7.50;99.90;;;;;;4835948;29;20042;-81
2024/01/02 07:52:20;;;;;;;3.08;2.08;;;7.50;99.90;;;;;;4822766;29;20050;-83
2024/01/02 07:54:46;;;;;;;2.83;2.20;;;7.70;99.90;;;;;;4844177;29;20526;-81
2024/01/02 07:57:11;;;;;;;2.65;2.10;;;7.60;99.90;;;;;;4857303;29;20061;-81
2024/01/02 07:59:37;;;;;;;3.80;2.30;;;7.70;99.90;;;;;;4872069;29;20056;-82
2024/01/02 08:02:03;;;;;;;5.55;2.60;;;7.70;99.90;;;;;;4861504;29;20046;-83
2024/01/02 08:04:29;;;;;;;6.47;2.83;;;7.80;99.90;;;;;;4824119;29;20073;-83
2024/01/02 08:06:57;;;;;;;4.70;2.80;;;7.90;99.90;;;;;;4831182;29;20475;-82
2024/01/02 08:09:23;;;;;;;5.00;3.17;;;8.00;99.90;;;;;;4853883;29;20054;-82
2024/01/02 08:11:49;;;;;;;7.20;3.45;;;8.10;99.90;;;;;;4838282;29;20470;-83
2024/01/02 08:14:14;;;;;;;6.10;3.92;;;8.20;99.90;;;;;;4853355;29;20056;-82
2024/01/02 08:16:40;;;;;;;9.15;4.03;;;8.20;99.90;;;;;;4853454;29;20536;-82
2024/01/02 08:19:07;;;;;;;7.93;3.72;;;8.30;99.90;;;;;;4836867;29;20058;-83
2024/01/02 08:21:33;;;;;;;10.60;5.50;;;8.40;99.90;;;;;;4841023;29;20054;-82
2024/01/02 08:23:59;;;;;;;7.90;4.00;;;8.50;99.90;;;;;;4837805;29;20053;-80
2024/01/02 08:26:25;;;;;;;7.90;4.97;;;8.60;99.90;;;;;;4837385;29;20046;-80
2024/01/02 08:28:54;;;;;;;12.65;4.65;;;8.70;99.90;;;;;;4838039;29;20049;-82
2024/01/02 08:31:20;;;;;;;9.15;4.68;;;8.70;99.90;;;;;;4819572;29;20050;-85
2024/01/02 08:33:46;;;;;;;9.82;4.18;;;8.80;99.90;;;;;;4826459;29;20054;-81
2024/01/02 08:36:12;;;;;;;14.98;5.07;;;8.90;99.90;;;;;;4827400;29;20073;-82
2024/01/02 08:38:39;;;;;;;12.35;4.35;;;8.90;99.90;;;;;;4830751;29;20099;-79
2024/01/02 08:41:05;;;;;;;14.55;5.25;;;9.00;99.90;;;;;;4833122;29;20144;-85
2024/01/02 08:43:30;;;;;;;15.10;6.15;;;9.10;99.90;;;;;;4838112;29;20104;-84
2024/01/02 08:45:56;;;;;;;14.30;4.55;;;9.20;99.90;;;;;;4839507;29;20041;-81
2024/01/02 08:48:21;;;;;;;15.85;5.53;;;9.20;99.90;;;;;;4838976;29;20477;-81
2024/01/02 08:50:47;;;;;;;17.67;8.30;;;9.30;99.90;;;;;;4840271;29;20519;-81
2024/01/02 08:53:13;;;;;;;16.77;4.95;;;9.40;99.90;;;;;;4841164;29;20126;-82
2024/01/02 08:55:40;;;;;;;14.90;3.63;;;9.40;99.90;;;;;;4838831;29;20050;-82
2024/01/02 08:58:06;;;;;;;14.13;3.83;;;9.40;99.90;;;;;;4840566;29;20061;-81
2024/01/02 09:00:31;;;;;;;11.70;2.97;;;9.50;99.90;;;;;;4856001;29;20050;-82
2024/01/02 09:02:59;;;;;;;17.95;3.50;;;9.60;99.90;;;;;;4840630;29;20089;-82
2024/01/02 09:05:26;;;;;;;15.48;2.90;;;9.60;99.90;;;;;;4837257;29;20057;-80
2024/01/02 09:07:52;;;;;;;15.52;3.15;;;9.60;99.90;;;;;;4839851;29;20089;-84
2024/01/02 09:10:18;;;;;;;11.48;3.13;;;9.70;99.90;;;;;;4822647;29;20050;-82
2024/01/02 09:12:43;;;;;;;12.07;2.72;;;9.70;99.90;;;;;;4838458;29;20261;-80
2024/01/02 09:15:09;;;;;;;15.65;2.53;;;9.70;99.90;;;;;;4839127;29;20615;-81
2024/01/02 09:17:35;;;;;;;15.60;2.97;;;9.70;99.90;;;;;;4838778;29;20058;-80
2024/01/02 09:20:01;;;;;;;17.42;3.08;;;9.70;99.90;;;;;;4823186;29;20057;-82
2024/01/02 09:22:26;;;;;;;19.27;2.88;;;9.80;99.90;;;;;;4838613;29;20078;-83
2024/01/02 09:25:01;;;;;;;16.95;2.60;;;9.80;99.90;;;;;;5131345;27;1223080;-81
2024/01/02 09:27:30;;;;;;;20.63;3.00;;;9.90;99.90;;;;;;5149619;27;20050;-82
2024/01/02 09:29:58;;;;;;;16.35;2.90;;;10.70;99.90;;;;;;5150470;27;20053;-81
2024/01/02 09:32:25;;;;;;;16.63;2.88;;;9.90;99.90;;;;;;5149865;27;20099;-81
2024/01/02 09:34:50;;;;;;;14.07;2.90;;;10.00;99.90;;;;;;5149647;27;20111;-82
2024/01/02 09:37:16;;;;;;;14.95;2.33;;;10.00;99.90;;;;;;5128508;27;20042;-81
2024/01/02 09:39:43;;;;;;;15.57;2.75;;;10.00;99.90;;;;;;5123366;27;20035;-80
2024/01/02 09:42:12;;;;;;;17.05;2.50;;;10.30;99.90;;;;;;5132993;27;20073;-79
2024/01/02 09:45:03;;;;;;;15.07;2.20;;;10.10;99.90;;;;;;5148938;27;20086;-81
2024/01/02 09:47:40;;;;;;;16.48;2.60;;;10.10;99.90;;;;;;5148216;27;20035;-80
2024/01/02 09:50:14;;;;;;;19.65;2.65;;;10.10;99.90;;;;;;5141657;27;20055;-80
2024/01/02 09:53:04;;;;;;;18.80;2.67;;;10.20;99.90;;;;;;5087489;28;20043;-81
2024/01/02 09:55:36;;;;;;;17.38;3.05;;;10.20;99.90;;;;;;5105834;28;20131;-80
2024/01/02 09:58:11;;;;;;;;;;;10.30;99.90;;;;;;5087092;28;20048;-80
2024/01/02 10:01:05;;;;;;;15.05;2.65;;;10.30;99.90;;;;;;5106361;28;19919;-80
2024/01/02 10:03:49;;;;;;;17.25;2.72;;;10.90;99.90;;;;;;5070432;28;20036;-80
2024/01/02 10:06:42;;;;;;;16.33;2.45;;;10.30;99.90;;;;;;5086871;28;20044;-80
2024/01/02 10:09:28;;;;;;;13.02;2.20;;;10.30;99.90;;;;;;5069672;28;20043;-80
2024/01/02 10:12:19;;;;;;;17.65;3.13;;;10.40;99.90;;;;;;5086835;28;20126;-80
2024/01/02 10:15:18;;;;;;;14.02;2.25;;;10.40;99.90;;;;;;5094460;27;20035;-80
2024/01/02 10:18:18;;;;;;;12.65;2.65;;;10.40;99.90;;;;;;5128576;27;20040;-80
2024/01/02 10:21:05;;;;;;;15.68;2.67;;;10.40;99.90;;;;;;5104546;28;20439;-82
2024/01/02 10:24:03;;;;;;;9.52;3.63;;;10.50;99.90;;;;;;5093789;28;20496;-82
2024/01/02 10:26:37;;;;;;;13.65;2.97;;;10.50;99.90;;;;;;5104737;28;20063;-81
2024/01/02 10:29:06;;;;;;;7.53;2.22;;;10.50;99.90;;;;;;5106517;28;20040;-81
2024/01/02 10:32:04;;;;;;;9.27;2.00;;;10.50;99.90;;;;;;5094025;27;20058;-82
2024/01/02 10:34:39;;;;;;;12.82;2.15;;;10.60;99.90;;;;;;5123149;27;20065;-81
2024/01/02 10:37:07;;;;;;;12.65;2.70;;;10.60;99.90;;;;;;5096034;28;20073;-81
2024/01/02 10:39:45;;;;;;;14.15;3.13;;;10.60;99.90;;;;;;5111277;28;20096;-80
2024/01/02 10:42:37;;;;;;;15.02;2.20;;;10.60;99.90;;;;;;5092629;28;20150;-81
2024/01/02 10:45:19;;;;;;;11.02;2.50;;;10.70;99.90;;;;;;5092672;28;20088;-82
2024/01/02 10:48:06;;;;;;;15.98;2.92;;;10.70;99.90;;;;;;5093571;28;20051;-81
2024/01/02 10:50:57;;;;;;;9.57;2.40;;;10.70;99.90;;;;;;5114266;27;20050;-82
2024/01/02 10:53:54;;;;;;;14.07;2.28;;;10.70;99.90;;;;;;5109753;27;20062;-80
2024/01/02 10:56:35;;;;;;;11.27;1.90;;;10.70;99.90;;;;;;5131015;27;20111;-80
2024/01/02 10:59:24;;;;;;;13.90;2.20;;;10.70;99.90;;;;;;5112566;27;20097;-82
2024/01/02 11:01:55;;;;;;;12.90;2.47;;;10.70;99.90;;;;;;5092043;28;20109;-87
2024/01/02 11:04:28;;;;;;;12.60;2.78;;;10.70;99.90;;;;;;5092609;28;20052;-82
2024/01/02 11:07:05;;;;;;;15.45;2.95;;;10.70;99.90;;;;;;5087035;28;20575;-83
2024/01/02 11:09:46;;;;;;;13.45;3.00;;;10.70;99.90;;;;;;5074073;28;20056;-82
2024/01/02 11:12:14;;;;;;;17.65;2.97;;;10.80;99.90;;;;;;5110206;28;20054;-80
2024/01/02 11:14:43;;;;;;;13.50;3.50;;;10.80;99.90;;;;;;5091710;28;20126;-78
2024/01/02 11:17:13;;;;;;;22.92;7.90;;;10.80;99.90;;;;;;5091513;28;20074;-80
2024/01/02 11:20:08;;;;;;;15.23;3.65;;;10.80;99.90;;;;;;5091222;28;20087;-79
2024/01/02 11:22:43;;;;;;;10.85;2.67;;;10.80;99.90;;;;;;5102422;28;20052;-80
2024/01/02 11:25:10;;;;;;;14.60;4.65;;;11.30;99.90;;;;;;5090864;28;20055;-80
2024/01/02 11:27:40;;;;;;;13.10;3.22;;;10.80;99.90;;;;;;5090609;28;20097;-80
2024/01/02 11:30:10;;;;;;;16.90;3.92;;;10.80;99.90;;;;;;5110072;28;20043;-80
2024/01/02 11:33:05;;;;;;;17.52;2.95;;;10.80;99.90;;;;;;5076767;28;20055;-80
2024/01/02 11:35:40;;;;;;;18.20;3.42;;;10.80;99.90;;;;;;5053245;28;20443;-79
2024/01/02 11:38:11;;;;;;;15.02;3.75;;;10.80;99.90;;;;;;5070564;28;20557;-80
2024/01/02 11:40:51;;;;;;;20.40;3.45;;;10.80;99.90;;;;;;5054883;28;20050;-80
2024/01/02 11:43:53;;;;;;;22.70;4.45;;;10.80;99.90;;;;;;5082061;28;20427;-81
2024/01/02 11:46:24;;;;;;;19.02;3.67;;;10.80;99.90;;;;;;5102151;28;20054;-79
2024/01/02 11:49:16;;;;;;;17.75;3.75;;;10.80;99.90;;;;;;5101504;27;20123;-78
2024/01/02 11:51:47;;;;;;;20.77;5.25;;;10.80;99.90;;;;;;5111808;27;20045;-82
2024/01/02 11:54:24;;;;;;;18.02;4.85;;;10.80;99.90;;;;;;5094772;28;20101;-80
2024/01/02 11:56:51;;;;;;;17.77;4.88;;;10.80;99.90;;;;;;5100174;27;20035;-80
2024/01/02 11:59:31;;;;;;;21.27;5.20;;;10.80;99.90;;;;;;5055017;28;20531;-80
2024/01/02 12:02:14;;;;;;;23.23;5.13;;;10.80;99.90;;;;;;5088194;28;20063;-79
2024/01/02 12:05:16;;;;;;;26.23;6.43;;;10.80;99.90;;;;;;5055017;28;20048;-80
2024/01/02 12:07:44;;;;;;;25.52;5.65;;;10.80;99.90;;;;;;5079415;28;20803;-80
2024/01/02 12:10:12;;;;;;;17.25;4.07;;;10.70;99.90;;;;;;5089023;28;20052;-80
2024/01/02 12:12:40;;;;;;;18.75;4.78;;;10.80;99.90;;;;;;5095714;28;20040;-80
2024/01/02 12:15:15;;;;;;;21.95;5.55;;;10.70;99.90;;;;;;5110489;27;20058;-80
2024/01/02 12:17:58;;;;;;;20.83;5.32;;;10.80;99.90;;;;;;5129010;27;20031;-80
2024/01/02 12:20:23;;;;;;;;;;;10.70;99.90;;;;;;5118181;27;20036;-80
2024/01/02 12:22:49;;;;;;;16.35;3.90;;;10.80;99.90;;;;;;5103921;27;19972;-82
2024/01/02 12:25:16;;;;;;;19.05;4.13;;;10.70;99.90;;;;;;5090031;27;20417;-81
2024/01/02 12:27:45;;;;;;;19.83;4.30;;;10.70;99.90;;;;;;5070238;28;20048;-81
2024/01/02 12:30:22;;;;;;;20.58;4.85;;;10.70;99.90;;;;;;5070452;28;20048;-81
2024/01/02 12:33:01;;;;;;;22.70;4.85;;;10.80;99.90;;;;;;5070085;28;20048;-82
2024/01/02 12:35:43;;;;;;;17.70;4.38;;;10.70;99.90;;;;;;5070507;28;20044;-81
2024/01/02 12:38:18;;;;;;;16.38;4.75;;;10.70;99.90;;;;;;5070751;28;20067;-81
2024/01/02 12:40:48;;;;;;;20.15;5.10;;;10.60;99.90;;;;;;5091058;27;20044;-81
2024/01/02 12:43:19;;;;;;;18.60;4.60;;;10.60;99.90;;;;;;5110342;27;20039;-83
2024/01/02 12:45:51;;;;;;;29.92;5.03;;;10.70;99.90;;;;;;5110724;27;20541;-79
2024/01/02 12:48:23;;;;;;;21.05;4.57;;;10.60;99.90;;;;;;5104763;27;20044;-81
2024/01/02 12:50:53;;;;;;;29.83;6.07;;;10.60;99.90;;;;;;5088917;28;20101;-83
2024/01/02 12:53:20;;;;;;;26.65;5.18;;;10.60;99.90;;;;;;5070205;28;20386;-85
2024/01/02 12:55:54;;;;;;;20.70;5.55;;;10.60;99.90;;;;;;5087607;27;20047;-83
2024/01/02 12:58:21;;;;;;;25.70;5.00;;;10.90;99.90;;;;;;5109484;27;20043;-80